LFKC/CLY METAR and TAF weather

Enter ICAO airport designator
Station Type Date Time Source
LFKC METAR 2019/09/21 21:00 UTC NOAA

LFKC 212100Z AUTO VRB01KT 9999 ///CB 21/16 Q1013


Station Type Date Time Source
LFKC Decoded METAR 2019/09/21 21:00 UTC NOAA

Calvi, France (LFKC) 42-32N 008-48E 58M
Sep 21, 2019 - 05:00 PM EDT / 2019.09.21 2100 UTC
Wind: Variable at 1 MPH (1 KT):0
Visibility: greater than 7 mile(s):0
Weather: Cumulonimbus clouds observed
Temperature: 69 F (21 C)
Dew Point: 60 F (16 C)
Relative Humidity: 73%
Pressure (altimeter): 29.91 in. Hg (1013 hPa)
ob: LFKC 212100Z AUTO VRB01KT 9999 ///CB 21/16 Q1013
cycle: 21

Station Type Date Time Source
LFKC TAF 2019/09/21 20:40 UTC NOAA

TAF LFKC 212031Z 2120/2215 CNL

Example: see airport list